sensor_id;sensor_type;location;lat;lon;timestamp;P1;durP1;ratioP1;P2;durP2;ratioP2
22248;SDS011;67538;52.180;5.646;2023-04-06T00:00:40;16.48;;;9.77;;
22248;SDS011;67538;52.180;5.646;2023-04-06T00:03:09;14.98;;;9.80;;
22248;SDS011;67538;52.180;5.646;2023-04-06T00:05:36;17.92;;;10.48;;
22248;SDS011;67538;52.180;5.646;2023-04-06T00:08:03;24.70;;;13.57;;
22248;SDS011;67538;52.180;5.646;2023-04-06T00:10:30;26.80;;;14.43;;
22248;SDS011;67538;52.180;5.646;2023-04-06T00:12:57;23.88;;;13.45;;
22248;SDS011;67538;52.180;5.646;2023-04-06T00:15:25;23.35;;;13.13;;
22248;SDS011;67538;52.180;5.646;2023-04-06T00:17:52;25.45;;;13.55;;
22248;SDS011;67538;52.180;5.646;2023-04-06T00:20:20;23.70;;;13.30;;
22248;SDS011;67538;52.180;5.646;2023-04-06T00:22:47;21.35;;;12.43;;
22248;SDS011;67538;52.180;5.646;2023-04-06T00:25:15;18.88;;;11.82;;
22248;SDS011;67538;52.180;5.646;2023-04-06T00:27:42;22.30;;;13.15;;
22248;SDS011;67538;52.180;5.646;2023-04-06T00:30:09;19.17;;;11.73;;
22248;SDS011;67538;52.180;5.646;2023-04-06T00:32:37;18.27;;;11.13;;
22248;SDS011;67538;52.180;5.646;2023-04-06T00:35:04;19.60;;;11.35;;
22248;SDS011;67538;52.180;5.646;2023-04-06T00:37:33;18.85;;;11.50;;
22248;SDS011;67538;52.180;5.646;2023-04-06T00:40:00;20.30;;;12.90;;
22248;SDS011;67538;52.180;5.646;2023-04-06T00:42:28;25.58;;;15.82;;
22248;SDS011;67538;52.180;5.646;2023-04-06T00:44:56;20.35;;;12.85;;
22248;SDS011;67538;52.180;5.646;2023-04-06T00:47:24;18.42;;;11.73;;
22248;SDS011;67538;52.180;5.646;2023-04-06T00:49:52;18.10;;;11.65;;
22248;SDS011;67538;52.180;5.646;2023-04-06T00:52:19;17.63;;;10.57;;
22248;SDS011;67538;52.180;5.646;2023-04-06T00:54:48;18.63;;;12.13;;
22248;SDS011;67538;52.180;5.646;2023-04-06T00:57:15;18.73;;;11.02;;
22248;SDS011;67538;52.180;5.646;2023-04-06T00:59:43;16.65;;;10.07;;
22248;SDS011;67538;52.180;5.646;2023-04-06T01:02:10;17.80;;;11.00;;
22248;SDS011;67538;52.180;5.646;2023-04-06T01:04:37;16.83;;;11.03;;
22248;SDS011;67538;52.180;5.646;2023-04-06T01:07:05;16.52;;;10.63;;
22248;SDS011;67538;52.180;5.646;2023-04-06T01:09:32;14.77;;;10.27;;
22248;SDS011;67538;52.180;5.646;2023-04-06T01:12:01;14.30;;;9.30;;
22248;SDS011;67538;52.180;5.646;2023-04-06T01:14:28;15.07;;;10.07;;
22248;SDS011;67538;52.180;5.646;2023-04-06T01:16:57;15.65;;;10.07;;
22248;SDS011;67538;52.180;5.646;2023-04-06T01:19:24;14.77;;;10.20;;
22248;SDS011;67538;52.180;5.646;2023-04-06T01:21:51;14.20;;;10.35;;
22248;SDS011;67538;52.180;5.646;2023-04-06T01:24:20;14.27;;;9.85;;
22248;SDS011;67538;52.180;5.646;2023-04-06T01:26:48;14.95;;;9.52;;
22248;SDS011;67538;52.180;5.646;2023-04-06T01:29:15;15.48;;;10.07;;
22248;SDS011;67538;52.180;5.646;2023-04-06T01:31:42;15.90;;;8.83;;
22248;SDS011;67538;52.180;5.646;2023-04-06T01:34:09;11.88;;;8.82;;
22248;SDS011;67538;52.180;5.646;2023-04-06T01:36:36;14.75;;;9.05;;
22248;SDS011;67538;52.180;5.646;2023-04-06T01:39:03;14.17;;;9.40;;
22248;SDS011;67538;52.180;5.646;2023-04-06T01:41:31;13.15;;;9.85;;
22248;SDS011;67538;52.180;5.646;2023-04-06T01:43:59;18.23;;;10.33;;
22248;SDS011;67538;52.180;5.646;2023-04-06T01:46:26;15.80;;;10.05;;
22248;SDS011;67538;52.180;5.646;2023-04-06T01:48:53;13.63;;;8.85;;
22248;SDS011;67538;52.180;5.646;2023-04-06T01:51:20;15.97;;;9.47;;
22248;SDS011;67538;52.180;5.646;2023-04-06T01:53:47;13.73;;;9.85;;
22248;SDS011;67538;52.180;5.646;2023-04-06T01:56:14;13.07;;;9.02;;
22248;SDS011;67538;52.180;5.646;2023-04-06T01:58:43;15.35;;;9.68;;
22248;SDS011;67538;52.180;5.646;2023-04-06T02:01:10;14.82;;;9.38;;
22248;SDS011;67538;52.180;5.646;2023-04-06T02:03:37;13.43;;;9.25;;
22248;SDS011;67538;52.180;5.646;2023-04-06T02:06:04;15.32;;;9.45;;
22248;SDS011;67538;52.180;5.646;2023-04-06T02:08:31;12.53;;;8.60;;
22248;SDS011;67538;52.180;5.646;2023-04-06T02:10:58;15.07;;;9.48;;
22248;SDS011;67538;52.180;5.646;2023-04-06T02:13:25;17.48;;;9.73;;
22248;SDS011;67538;52.180;5.646;2023-04-06T02:15:53;17.80;;;10.38;;
22248;SDS011;67538;52.180;5.646;2023-04-06T02:18:20;17.60;;;10.98;;
22248;SDS011;67538;52.180;5.646;2023-04-06T02:20:47;18.75;;;9.80;;
22248;SDS011;67538;52.180;5.646;2023-04-06T02:23:15;17.02;;;10.52;;
22248;SDS011;67538;52.180;5.646;2023-04-06T02:25:42;17.63;;;10.25;;
22248;SDS011;67538;52.180;5.646;2023-04-06T02:28:09;16.27;;;10.00;;
22248;SDS011;67538;52.180;5.646;2023-04-06T02:30:36;18.42;;;10.82;;
22248;SDS011;67538;52.180;5.646;2023-04-06T02:33:04;17.17;;;10.35;;
22248;SDS011;67538;52.180;5.646;2023-04-06T02:35:31;15.50;;;10.77;;
22248;SDS011;67538;52.180;5.646;2023-04-06T02:37:58;15.27;;;11.18;;
22248;SDS011;67538;52.180;5.646;2023-04-06T02:40:25;20.08;;;11.20;;
22248;SDS011;67538;52.180;5.646;2023-04-06T02:42:52;19.05;;;11.98;;
22248;SDS011;67538;52.180;5.646;2023-04-06T02:45:19;16.80;;;10.80;;
22248;SDS011;67538;52.180;5.646;2023-04-06T02:47:46;18.73;;;11.40;;
22248;SDS011;67538;52.180;5.646;2023-04-06T02:50:15;17.48;;;11.35;;
22248;SDS011;67538;52.180;5.646;2023-04-06T02:52:42;15.73;;;10.27;;
22248;SDS011;67538;52.180;5.646;2023-04-06T02:55:09;21.00;;;11.15;;
22248;SDS011;67538;52.180;5.646;2023-04-06T02:57:36;18.48;;;13.02;;
22248;SDS011;67538;52.180;5.646;2023-04-06T03:00:03;17.90;;;12.65;;
22248;SDS011;67538;52.180;5.646;2023-04-06T03:02:31;20.02;;;13.48;;
22248;SDS011;67538;52.180;5.646;2023-04-06T03:04:58;20.98;;;13.30;;
22248;SDS011;67538;52.180;5.646;2023-04-06T03:07:27;19.77;;;12.63;;
22248;SDS011;67538;52.180;5.646;2023-04-06T03:09:54;19.73;;;12.43;;
22248;SDS011;67538;52.180;5.646;2023-04-06T03:12:21;18.92;;;12.27;;
22248;SDS011;67538;52.180;5.646;2023-04-06T03:14:48;20.33;;;12.80;;
22248;SDS011;67538;52.180;5.646;2023-04-06T03:17:15;20.73;;;12.38;;
22248;SDS011;67538;52.180;5.646;2023-04-06T03:19:42;21.98;;;11.85;;
22248;SDS011;67538;52.180;5.646;2023-04-06T03:22:09;18.50;;;12.00;;
22248;SDS011;67538;52.180;5.646;2023-04-06T03:24:38;17.45;;;11.85;;
22248;SDS011;67538;52.180;5.646;2023-04-06T03:27:05;22.55;;;12.13;;
22248;SDS011;67538;52.180;5.646;2023-04-06T03:29:32;20.02;;;12.73;;
22248;SDS011;67538;52.180;5.646;2023-04-06T03:31:59;18.17;;;12.18;;
22248;SDS011;67538;52.180;5.646;2023-04-06T03:34:26;18.23;;;11.68;;
22248;SDS011;67538;52.180;5.646;2023-04-06T03:36:53;19.43;;;12.40;;
22248;SDS011;67538;52.180;5.646;2023-04-06T03:39:20;17.30;;;11.98;;
22248;SDS011;67538;52.180;5.646;2023-04-06T03:41:49;18.90;;;12.48;;
22248;SDS011;67538;52.180;5.646;2023-04-06T03:44:16;17.23;;;12.18;;
22248;SDS011;67538;52.180;5.646;2023-04-06T03:46:43;16.83;;;12.07;;
22248;SDS011;67538;52.180;5.646;2023-04-06T03:49:10;18.65;;;12.60;;
22248;SDS011;67538;52.180;5.646;2023-04-06T03:51:37;23.40;;;14.23;;
22248;SDS011;67538;52.180;5.646;2023-04-06T03:54:04;21.40;;;13.30;;
22248;SDS011;67538;52.180;5.646;2023-04-06T03:56:31;18.27;;;12.63;;
22248;SDS011;67538;52.180;5.646;2023-04-06T03:58:59;19.30;;;12.90;;
22248;SDS011;67538;52.180;5.646;2023-04-06T04:01:27;20.55;;;13.07;;
22248;SDS011;67538;52.180;5.646;2023-04-06T04:03:54;20.20;;;12.90;;
22248;SDS011;67538;52.180;5.646;2023-04-06T04:06:21;21.13;;;13.65;;
22248;SDS011;67538;52.180;5.646;2023-04-06T04:08:48;21.77;;;13.53;;
22248;SDS011;67538;52.180;5.646;2023-04-06T04:11:15;20.33;;;13.95;;
22248;SDS011;67538;52.180;5.646;2023-04-06T04:13:42;22.10;;;13.57;;
22248;SDS011;67538;52.180;5.646;2023-04-06T04:16:11;19.30;;;13.67;;
22248;SDS011;67538;52.180;5.646;2023-04-06T04:18:38;20.92;;;13.65;;
22248;SDS011;67538;52.180;5.646;2023-04-06T04:21:05;18.17;;;13.32;;
22248;SDS011;67538;52.180;5.646;2023-04-06T04:23:32;21.30;;;13.65;;
22248;SDS011;67538;52.180;5.646;2023-04-06T04:25:59;20.80;;;13.27;;
22248;SDS011;67538;52.180;5.646;2023-04-06T04:28:26;20.60;;;13.63;;
22248;SDS011;67538;52.180;5.646;2023-04-06T04:30:53;22.88;;;14.25;;
22248;SDS011;67538;52.180;5.646;2023-04-06T04:33:21;23.08;;;13.93;;
22248;SDS011;67538;52.180;5.646;2023-04-06T04:35:49;22.13;;;13.85;;
22248;SDS011;67538;52.180;5.646;2023-04-06T04:38:16;22.17;;;14.15;;
22248;SDS011;67538;52.180;5.646;2023-04-06T04:40:43;21.77;;;14.07;;
22248;SDS011;67538;52.180;5.646;2023-04-06T04:43:10;24.00;;;14.50;;
22248;SDS011;67538;52.180;5.646;2023-04-06T04:45:37;25.48;;;14.90;;
22248;SDS011;67538;52.180;5.646;2023-04-06T04:48:04;25.80;;;15.82;;
22248;SDS011;67538;52.180;5.646;2023-04-06T04:50:34;26.75;;;15.80;;
22248;SDS011;67538;52.180;5.646;2023-04-06T04:53:01;25.90;;;16.33;;
22248;SDS011;67538;52.180;5.646;2023-04-06T04:55:30;29.42;;;17.10;;
22248;SDS011;67538;52.180;5.646;2023-04-06T04:57:57;44.20;;;21.58;;
22248;SDS011;67538;52.180;5.646;2023-04-06T05:00:24;121.95;;;46.78;;
22248;SDS011;67538;52.180;5.646;2023-04-06T05:02:51;33.30;;;17.55;;
22248;SDS011;67538;52.180;5.646;2023-04-06T05:05:18;130.02;;;46.47;;
22248;SDS011;67538;52.180;5.646;2023-04-06T05:07:47;26.37;;;15.10;;
22248;SDS011;67538;52.180;5.646;2023-04-06T05:10:14;19.90;;;13.00;;
22248;SDS011;67538;52.180;5.646;2023-04-06T05:12:41;20.42;;;13.32;;
22248;SDS011;67538;52.180;5.646;2023-04-06T05:15:09;21.17;;;13.20;;
22248;SDS011;67538;52.180;5.646;2023-04-06T05:17:36;21.52;;;13.77;;
22248;SDS011;67538;52.180;5.646;2023-04-06T05:20:04;20.80;;;13.30;;
22248;SDS011;67538;52.180;5.646;2023-04-06T05:22:32;21.65;;;12.98;;
22248;SDS011;67538;52.180;5.646;2023-04-06T05:25:00;19.02;;;12.82;;
22248;SDS011;67538;52.180;5.646;2023-04-06T05:27:27;23.10;;;14.83;;
22248;SDS011;67538;52.180;5.646;2023-04-06T05:29:55;21.63;;;15.18;;
22248;SDS011;67538;52.180;5.646;2023-04-06T05:32:22;23.00;;;15.80;;
22248;SDS011;67538;52.180;5.646;2023-04-06T05:34:49;27.05;;;14.50;;
22248;SDS011;67538;52.180;5.646;2023-04-06T05:37:17;20.70;;;13.37;;
22248;SDS011;67538;52.180;5.646;2023-04-06T05:39:44;20.27;;;13.13;;
22248;SDS011;67538;52.180;5.646;2023-04-06T05:42:12;19.33;;;13.05;;
22248;SDS011;67538;52.180;5.646;2023-04-06T05:44:40;20.03;;;12.90;;
22248;SDS011;67538;52.180;5.646;2023-04-06T05:47:07;22.77;;;13.00;;
22248;SDS011;67538;52.180;5.646;2023-04-06T05:49:34;23.60;;;13.45;;
22248;SDS011;67538;52.180;5.646;2023-04-06T05:52:01;21.65;;;12.88;;
22248;SDS011;67538;52.180;5.646;2023-04-06T05:54:29;20.77;;;12.98;;
22248;SDS011;67538;52.180;5.646;2023-04-06T05:56:56;21.60;;;13.25;;
22248;SDS011;67538;52.180;5.646;2023-04-06T05:59:24;22.17;;;12.98;;
22248;SDS011;67538;52.180;5.646;2023-04-06T06:01:51;22.77;;;12.83;;
22248;SDS011;67538;52.180;5.646;2023-04-06T06:04:18;21.48;;;13.15;;
22248;SDS011;67538;52.180;5.646;2023-04-06T06:06:45;21.45;;;13.70;;
22248;SDS011;67538;52.180;5.646;2023-04-06T06:09:12;23.23;;;14.02;;
22248;SDS011;67538;52.180;5.646;2023-04-06T06:11:39;23.27;;;14.27;;
22248;SDS011;67538;52.180;5.646;2023-04-06T06:14:07;23.08;;;14.48;;
22248;SDS011;67538;52.180;5.646;2023-04-06T06:16:35;21.25;;;13.80;;
22248;SDS011;67538;52.180;5.646;2023-04-06T06:19:02;24.95;;;13.88;;
22248;SDS011;67538;52.180;5.646;2023-04-06T06:21:29;27.02;;;19.65;;
22248;SDS011;67538;52.180;5.646;2023-04-06T06:23:56;22.83;;;14.60;;
22248;SDS011;67538;52.180;5.646;2023-04-06T06:26:23;25.05;;;15.25;;
22248;SDS011;67538;52.180;5.646;2023-04-06T06:28:51;25.13;;;16.05;;
22248;SDS011;67538;52.180;5.646;2023-04-06T06:31:18;24.23;;;15.20;;
22248;SDS011;67538;52.180;5.646;2023-04-06T06:33:49;23.38;;;15.32;;
22248;SDS011;67538;52.180;5.646;2023-04-06T06:36:16;24.10;;;14.75;;
22248;SDS011;67538;52.180;5.646;2023-04-06T06:38:43;23.45;;;14.65;;
22248;SDS011;67538;52.180;5.646;2023-04-06T06:41:10;23.38;;;14.90;;
22248;SDS011;67538;52.180;5.646;2023-04-06T06:43:38;23.20;;;14.93;;
22248;SDS011;67538;52.180;5.646;2023-04-06T06:46:05;27.02;;;18.70;;
22248;SDS011;67538;52.180;5.646;2023-04-06T06:48:32;22.77;;;15.73;;
22248;SDS011;67538;52.180;5.646;2023-04-06T06:51:00;24.52;;;16.27;;
22248;SDS011;67538;52.180;5.646;2023-04-06T06:53:28;25.30;;;15.95;;
22248;SDS011;67538;52.180;5.646;2023-04-06T06:55:55;27.73;;;18.50;;
22248;SDS011;67538;52.180;5.646;2023-04-06T06:58:22;27.05;;;16.25;;
22248;SDS011;67538;52.180;5.646;2023-04-06T07:00:49;24.25;;;15.32;;
22248;SDS011;67538;52.180;5.646;2023-04-06T07:03:16;24.90;;;16.33;;
22248;SDS011;67538;52.180;5.646;2023-04-06T07:05:46;24.60;;;16.05;;
22248;SDS011;67538;52.180;5.646;2023-04-06T07:08:19;25.90;;;16.92;;
22248;SDS011;67538;52.180;5.646;2023-04-06T07:10:47;25.25;;;17.05;;
22248;SDS011;67538;52.180;5.646;2023-04-06T07:13:14;25.95;;;15.88;;
22248;SDS011;67538;52.180;5.646;2023-04-06T07:15:45;27.63;;;17.10;;
22248;SDS011;67538;52.180;5.646;2023-04-06T07:18:12;29.25;;;19.10;;
22248;SDS011;67538;52.180;5.646;2023-04-06T07:20:39;34.65;;;17.70;;
22248;SDS011;67538;52.180;5.646;2023-04-06T07:23:06;27.38;;;17.33;;
22248;SDS011;67538;52.180;5.646;2023-04-06T07:25:35;29.65;;;16.77;;
22248;SDS011;67538;52.180;5.646;2023-04-06T07:28:03;26.95;;;17.13;;
22248;SDS011;67538;52.180;5.646;2023-04-06T07:30:30;31.45;;;18.75;;
22248;SDS011;67538;52.180;5.646;2023-04-06T07:32:57;29.77;;;17.53;;
22248;SDS011;67538;52.180;5.646;2023-04-06T07:35:25;28.33;;;18.03;;
22248;SDS011;67538;52.180;5.646;2023-04-06T07:37:52;28.02;;;17.40;;
22248;SDS011;67538;52.180;5.646;2023-04-06T07:40:20;27.55;;;17.27;;
22248;SDS011;67538;52.180;5.646;2023-04-06T07:42:48;31.73;;;19.10;;
22248;SDS011;67538;52.180;5.646;2023-04-06T07:45:15;28.83;;;18.27;;
22248;SDS011;67538;52.180;5.646;2023-04-06T07:47:42;29.98;;;18.83;;
22248;SDS011;67538;52.180;5.646;2023-04-06T07:50:10;29.30;;;18.67;;
22248;SDS011;67538;52.180;5.646;2023-04-06T07:52:37;28.88;;;17.80;;
22248;SDS011;67538;52.180;5.646;2023-04-06T07:55:05;27.92;;;17.48;;
22248;SDS011;67538;52.180;5.646;2023-04-06T07:57:32;29.15;;;17.65;;
22248;SDS011;67538;52.180;5.646;2023-04-06T08:00:01;29.10;;;17.08;;
22248;SDS011;67538;52.180;5.646;2023-04-06T08:02:29;27.77;;;17.17;;
22248;SDS011;67538;52.180;5.646;2023-04-06T08:04:56;28.15;;;17.52;;
22248;SDS011;67538;52.180;5.646;2023-04-06T08:07:23;29.60;;;17.90;;
22248;SDS011;67538;52.180;5.646;2023-04-06T08:09:51;30.52;;;18.70;;
22248;SDS011;67538;52.180;5.646;2023-04-06T08:12:18;29.83;;;18.38;;
22248;SDS011;67538;52.180;5.646;2023-04-06T08:14:45;31.05;;;18.95;;
22248;SDS011;67538;52.180;5.646;2023-04-06T08:17:13;36.70;;;20.38;;
22248;SDS011;67538;52.180;5.646;2023-04-06T08:19:41;39.42;;;20.45;;
22248;SDS011;67538;52.180;5.646;2023-04-06T08:22:09;34.25;;;19.70;;
22248;SDS011;67538;52.180;5.646;2023-04-06T08:24:36;34.63;;;19.77;;
22248;SDS011;67538;52.180;5.646;2023-04-06T08:27:03;34.37;;;19.27;;
22248;SDS011;67538;52.180;5.646;2023-04-06T08:29:30;29.98;;;18.08;;
22248;SDS011;67538;52.180;5.646;2023-04-06T08:31:57;31.90;;;17.88;;
22248;SDS011;67538;52.180;5.646;2023-04-06T08:34:25;33.30;;;18.10;;
22248;SDS011;67538;52.180;5.646;2023-04-06T08:36:52;28.83;;;18.08;;
22248;SDS011;67538;52.180;5.646;2023-04-06T08:39:19;29.95;;;18.40;;
22248;SDS011;67538;52.180;5.646;2023-04-06T08:41:50;32.70;;;18.85;;
22248;SDS011;67538;52.180;5.646;2023-04-06T08:44:18;33.53;;;20.70;;
22248;SDS011;67538;52.180;5.646;2023-04-06T08:46:45;33.50;;;19.13;;
22248;SDS011;67538;52.180;5.646;2023-04-06T08:49:13;32.67;;;18.77;;
22248;SDS011;67538;52.180;5.646;2023-04-06T08:51:43;30.83;;;18.70;;
22248;SDS011;67538;52.180;5.646;2023-04-06T08:54:11;30.42;;;18.15;;
22248;SDS011;67538;52.180;5.646;2023-04-06T08:56:38;35.70;;;20.30;;
22248;SDS011;67538;52.180;5.646;2023-04-06T08:59:06;32.72;;;19.60;;
22248;SDS011;67538;52.180;5.646;2023-04-06T09:01:35;37.78;;;20.60;;
22248;SDS011;67538;52.180;5.646;2023-04-06T09:04:06;35.20;;;19.20;;
22248;SDS011;67538;52.180;5.646;2023-04-06T09:06:35;31.10;;;19.17;;
22248;SDS011;67538;52.180;5.646;2023-04-06T09:09:04;32.70;;;19.95;;
22248;SDS011;67538;52.180;5.646;2023-04-06T09:11:41;30.80;;;19.52;;
22248;SDS011;67538;52.180;5.646;2023-04-06T09:14:09;31.02;;;19.65;;
22248;SDS011;67538;52.180;5.646;2023-04-06T09:16:38;33.17;;;19.60;;
22248;SDS011;67538;52.180;5.646;2023-04-06T09:19:06;32.92;;;20.17;;
22248;SDS011;67538;52.180;5.646;2023-04-06T09:21:33;34.65;;;20.35;;
22248;SDS011;67538;52.180;5.646;2023-04-06T09:24:01;38.08;;;22.50;;
22248;SDS011;67538;52.180;5.646;2023-04-06T09:26:30;43.60;;;24.23;;
22248;SDS011;67538;52.180;5.646;2023-04-06T09:28:59;35.95;;;21.65;;
22248;SDS011;67538;52.180;5.646;2023-04-06T09:31:27;38.38;;;21.42;;
22248;SDS011;67538;52.180;5.646;2023-04-06T09:33:55;34.45;;;19.90;;
22248;SDS011;67538;52.180;5.646;2023-04-06T09:36:29;34.97;;;21.40;;
22248;SDS011;67538;52.180;5.646;2023-04-06T09:38:58;32.72;;;20.58;;
22248;SDS011;67538;52.180;5.646;2023-04-06T09:41:26;35.40;;;20.95;;
22248;SDS011;67538;52.180;5.646;2023-04-06T09:44:05;37.17;;;21.52;;
22248;SDS011;67538;52.180;5.646;2023-04-06T09:46:35;35.17;;;20.70;;
22248;SDS011;67538;52.180;5.646;2023-04-06T09:49:04;37.33;;;21.27;;
22248;SDS011;67538;52.180;5.646;2023-04-06T09:51:35;39.30;;;22.60;;
22248;SDS011;67538;52.180;5.646;2023-04-06T09:54:03;39.85;;;22.08;;
22248;SDS011;67538;52.180;5.646;2023-04-06T09:56:33;36.47;;;22.13;;
22248;SDS011;67538;52.180;5.646;2023-04-06T09:59:12;37.83;;;22.77;;
22248;SDS011;67538;52.180;5.646;2023-04-06T10:01:44;41.58;;;23.00;;
22248;SDS011;67538;52.180;5.646;2023-04-06T10:04:21;40.75;;;23.33;;
22248;SDS011;67538;52.180;5.646;2023-04-06T10:06:55;40.72;;;23.58;;
22248;SDS011;67538;52.180;5.646;2023-04-06T10:09:24;38.05;;;23.50;;
22248;SDS011;67538;52.180;5.646;2023-04-06T10:12:00;37.38;;;23.40;;
22248;SDS011;67538;52.180;5.646;2023-04-06T10:14:30;35.35;;;22.42;;
22248;SDS011;67538;52.180;5.646;2023-04-06T10:17:00;38.28;;;22.27;;
22248;SDS011;67538;52.180;5.646;2023-04-06T10:19:30;42.95;;;22.85;;
22248;SDS011;67538;52.180;5.646;2023-04-06T10:22:04;40.67;;;22.25;;
22248;SDS011;67538;52.180;5.646;2023-04-06T10:24:35;37.00;;;21.85;;
22248;SDS011;67538;52.180;5.646;2023-04-06T10:27:02;40.57;;;23.50;;
22248;SDS011;67538;52.180;5.646;2023-04-06T10:29:41;40.40;;;23.73;;
22248;SDS011;67538;52.180;5.646;2023-04-06T10:32:10;38.40;;;23.05;;
22248;SDS011;67538;52.180;5.646;2023-04-06T10:34:37;41.10;;;23.67;;
22248;SDS011;67538;52.180;5.646;2023-04-06T10:37:10;36.78;;;23.35;;
22248;SDS011;67538;52.180;5.646;2023-04-06T10:39:45;38.60;;;23.77;;
22248;SDS011;67538;52.180;5.646;2023-04-06T10:42:13;39.08;;;23.60;;
22248;SDS011;67538;52.180;5.646;2023-04-06T10:44:44;41.67;;;24.48;;
22248;SDS011;67538;52.180;5.646;2023-04-06T10:47:16;39.22;;;23.85;;
22248;SDS011;67538;52.180;5.646;2023-04-06T10:49:44;40.15;;;23.75;;
22248;SDS011;67538;52.180;5.646;2023-04-06T10:52:11;41.50;;;23.63;;
22248;SDS011;67538;52.180;5.646;2023-04-06T10:54:40;38.58;;;23.00;;
22248;SDS011;67538;52.180;5.646;2023-04-06T10:57:09;35.13;;;21.63;;
22248;SDS011;67538;52.180;5.646;2023-04-06T10:59:36;36.70;;;21.52;;
22248;SDS011;67538;52.180;5.646;2023-04-06T11:02:04;36.38;;;21.55;;
22248;SDS011;67538;52.180;5.646;2023-04-06T11:04:31;39.45;;;21.70;;
22248;SDS011;67538;52.180;5.646;2023-04-06T11:06:58;33.50;;;22.05;;
22248;SDS011;67538;52.180;5.646;2023-04-06T11:09:25;36.75;;;22.83;;
22248;SDS011;67538;52.180;5.646;2023-04-06T11:11:53;37.20;;;21.48;;
22248;SDS011;67538;52.180;5.646;2023-04-06T11:14:21;31.90;;;20.02;;
22248;SDS011;67538;52.180;5.646;2023-04-06T11:16:49;31.77;;;20.15;;
22248;SDS011;67538;52.180;5.646;2023-04-06T11:19:17;27.42;;;18.63;;
22248;SDS011;67538;52.180;5.646;2023-04-06T11:21:45;34.37;;;20.40;;
22248;SDS011;67538;52.180;5.646;2023-04-06T11:24:14;26.33;;;18.17;;
22248;SDS011;67538;52.180;5.646;2023-04-06T11:26:43;23.67;;;16.27;;
22248;SDS011;67538;52.180;5.646;2023-04-06T11:29:11;23.58;;;16.33;;
22248;SDS011;67538;52.180;5.646;2023-04-06T11:31:41;22.48;;;15.65;;
22248;SDS011;67538;52.180;5.646;2023-04-06T11:34:11;21.00;;;13.90;;
22248;SDS011;67538;52.180;5.646;2023-04-06T11:36:43;22.10;;;15.13;;
22248;SDS011;67538;52.180;5.646;2023-04-06T11:39:11;20.40;;;14.35;;
22248;SDS011;67538;52.180;5.646;2023-04-06T11:41:39;19.20;;;13.07;;
22248;SDS011;67538;52.180;5.646;2023-04-06T11:44:06;20.33;;;13.43;;
22248;SDS011;67538;52.180;5.646;2023-04-06T11:46:33;16.67;;;11.10;;
22248;SDS011;67538;52.180;5.646;2023-04-06T11:49:01;17.00;;;11.43;;
22248;SDS011;67538;52.180;5.646;2023-04-06T11:51:28;17.23;;;11.88;;
22248;SDS011;67538;52.180;5.646;2023-04-06T11:53:57;15.85;;;11.30;;
22248;SDS011;67538;52.180;5.646;2023-04-06T11:56:24;16.92;;;11.77;;
22248;SDS011;67538;52.180;5.646;2023-04-06T11:58:54;15.52;;;10.73;;
22248;SDS011;67538;52.180;5.646;2023-04-06T12:01:21;17.25;;;11.70;;
22248;SDS011;67538;52.180;5.646;2023-04-06T12:03:49;17.50;;;10.90;;
22248;SDS011;67538;52.180;5.646;2023-04-06T12:06:17;17.73;;;10.73;;
22248;SDS011;67538;52.180;5.646;2023-04-06T12:08:44;17.50;;;11.63;;
22248;SDS011;67538;52.180;5.646;2023-04-06T12:11:13;17.33;;;11.73;;
22248;SDS011;67538;52.180;5.646;2023-04-06T12:13:40;18.08;;;12.38;;
22248;SDS011;67538;52.180;5.646;2023-04-06T12:16:07;19.77;;;12.93;;
22248;SDS011;67538;52.180;5.646;2023-04-06T12:18:34;19.07;;;12.40;;
22248;SDS011;67538;52.180;5.646;2023-04-06T12:21:01;15.75;;;11.23;;
22248;SDS011;67538;52.180;5.646;2023-04-06T12:23:28;17.35;;;11.30;;
22248;SDS011;67538;52.180;5.646;2023-04-06T12:25:55;18.02;;;12.52;;
22248;SDS011;67538;52.180;5.646;2023-04-06T12:28:24;18.88;;;11.98;;
22248;SDS011;67538;52.180;5.646;2023-04-06T12:30:52;18.20;;;12.13;;
22248;SDS011;67538;52.180;5.646;2023-04-06T12:33:19;16.05;;;11.05;;
22248;SDS011;67538;52.180;5.646;2023-04-06T12:35:46;14.93;;;10.80;;
22248;SDS011;67538;52.180;5.646;2023-04-06T12:38:13;20.85;;;11.95;;
22248;SDS011;67538;52.180;5.646;2023-04-06T12:40:41;13.50;;;10.13;;
22248;SDS011;67538;52.180;5.646;2023-04-06T12:43:08;16.63;;;10.48;;
22248;SDS011;67538;52.180;5.646;2023-04-06T12:45:37;16.85;;;10.30;;
22248;SDS011;67538;52.180;5.646;2023-04-06T12:48:04;16.58;;;10.27;;
22248;SDS011;67538;52.180;5.646;2023-04-06T12:50:31;13.90;;;9.93;;
22248;SDS011;67538;52.180;5.646;2023-04-06T12:52:58;16.05;;;9.85;;
22248;SDS011;67538;52.180;5.646;2023-04-06T12:55:25;14.15;;;9.60;;
22248;SDS011;67538;52.180;5.646;2023-04-06T12:57:55;15.38;;;10.20;;
22248;SDS011;67538;52.180;5.646;2023-04-06T13:00:23;13.93;;;10.07;;
22248;SDS011;67538;52.180;5.646;2023-04-06T13:02:51;15.38;;;9.45;;
22248;SDS011;67538;52.180;5.646;2023-04-06T13:05:18;16.40;;;10.43;;
22248;SDS011;67538;52.180;5.646;2023-04-06T13:07:46;13.80;;;9.68;;
22248;SDS011;67538;52.180;5.646;2023-04-06T13:10:13;14.00;;;9.80;;
22248;SDS011;67538;52.180;5.646;2023-04-06T13:12:40;16.88;;;10.02;;
22248;SDS011;67538;52.180;5.646;2023-04-06T13:15:07;15.30;;;9.52;;
22248;SDS011;67538;52.180;5.646;2023-04-06T13:17:35;16.20;;;9.90;;
22248;SDS011;67538;52.180;5.646;2023-04-06T13:20:04;16.00;;;11.27;;
22248;SDS011;67538;52.180;5.646;2023-04-06T13:22:32;16.95;;;11.00;;
22248;SDS011;67538;52.180;5.646;2023-04-06T13:24:59;17.40;;;11.65;;
22248;SDS011;67538;52.180;5.646;2023-04-06T13:27:26;17.05;;;10.27;;
22248;SDS011;67538;52.180;5.646;2023-04-06T13:29:53;15.50;;;10.57;;
22248;SDS011;67538;52.180;5.646;2023-04-06T13:32:22;16.85;;;11.38;;
22248;SDS011;67538;52.180;5.646;2023-04-06T13:34:49;16.08;;;11.35;;
22248;SDS011;67538;52.180;5.646;2023-04-06T13:37:19;17.73;;;11.80;;
22248;SDS011;67538;52.180;5.646;2023-04-06T13:39:46;17.33;;;11.50;;
22248;SDS011;67538;52.180;5.646;2023-04-06T13:42:13;16.00;;;11.32;;
22248;SDS011;67538;52.180;5.646;2023-04-06T13:44:40;15.67;;;11.00;;
22248;SDS011;67538;52.180;5.646;2023-04-06T13:47:07;15.75;;;11.55;;
22248;SDS011;67538;52.180;5.646;2023-04-06T13:49:34;17.33;;;11.65;;
22248;SDS011;67538;52.180;5.646;2023-04-06T13:52:02;15.43;;;11.20;;
22248;SDS011;67538;52.180;5.646;2023-04-06T13:54:30;14.88;;;10.63;;
22248;SDS011;67538;52.180;5.646;2023-04-06T13:56:57;15.88;;;11.15;;
22248;SDS011;67538;52.180;5.646;2023-04-06T13:59:31;18.02;;;11.75;;
22248;SDS011;67538;52.180;5.646;2023-04-06T14:01:58;17.25;;;12.02;;
22248;SDS011;67538;52.180;5.646;2023-04-06T14:04:26;18.58;;;12.00;;
22248;SDS011;67538;52.180;5.646;2023-04-06T14:06:53;17.45;;;12.40;;
22248;SDS011;67538;52.180;5.646;2023-04-06T14:09:20;16.63;;;11.73;;
22248;SDS011;67538;52.180;5.646;2023-04-06T14:11:48;16.15;;;11.38;;
22248;SDS011;67538;52.180;5.646;2023-04-06T14:14:15;17.87;;;11.37;;
22248;SDS011;67538;52.180;5.646;2023-04-06T14:16:42;16.70;;;11.85;;
22248;SDS011;67538;52.180;5.646;2023-04-06T14:19:10;18.63;;;12.23;;
22248;SDS011;67538;52.180;5.646;2023-04-06T14:21:37;17.70;;;12.60;;
22248;SDS011;67538;52.180;5.646;2023-04-06T14:24:05;16.38;;;12.10;;
22248;SDS011;67538;52.180;5.646;2023-04-06T14:26:33;18.83;;;12.65;;